createdAt,value
2019-03-30T00:01:39.630Z,11.80
2019-03-30T00:04:08.047Z,10.20
2019-03-30T00:06:36.491Z,10.23
2019-03-30T00:09:08.212Z,8.80
2019-03-30T00:11:36.733Z,9.23
2019-03-30T00:14:05.219Z,9.77
2019-03-30T00:16:33.669Z,10.30
2019-03-30T00:19:02.085Z,10.10
2019-03-30T00:21:30.532Z,10.27
2019-03-30T00:23:58.950Z,10.37
2019-03-30T00:26:27.399Z,10.90
2019-03-30T00:28:55.812Z,11.23
2019-03-30T00:31:24.268Z,10.90
2019-03-30T00:33:52.751Z,10.50
2019-03-30T00:36:21.202Z,10.10
2019-03-30T00:38:49.616Z,9.90
2019-03-30T00:41:18.137Z,11.20
2019-03-30T00:43:46.554Z,14.27
2019-03-30T00:46:14.999Z,15.20
2019-03-30T00:48:43.416Z,15.10
2019-03-30T00:51:11.866Z,15.03
2019-03-30T00:53:40.282Z,14.93
2019-03-30T00:56:08.731Z,17.10
2019-03-30T00:58:37.171Z,14.43
2019-03-30T01:01:05.680Z,17.03
2019-03-30T01:03:34.107Z,13.10
2019-03-30T01:06:02.551Z,11.53
2019-03-30T01:08:30.966Z,13.10
2019-03-30T01:10:59.412Z,13.20
2019-03-30T01:13:27.836Z,12.40
2019-03-30T01:15:56.276Z,13.47
2019-03-30T01:18:24.701Z,13.30
2019-03-30T01:20:53.148Z,12.80
2019-03-30T01:23:21.569Z,11.40
2019-03-30T01:25:49.986Z,12.40
2019-03-30T01:28:18.438Z,15.33
2019-03-30T01:30:47.180Z,13.70
2019-03-30T01:33:15.687Z,12.50
2019-03-30T01:35:44.097Z,12.43
2019-03-30T01:38:12.541Z,9.67
2019-03-30T01:40:40.953Z,10.97
2019-03-30T01:43:09.407Z,11.10
2019-03-30T01:45:37.897Z,10.70
2019-03-30T01:48:06.343Z,11.40
2019-03-30T01:50:34.756Z,11.03
2019-03-30T01:53:03.199Z,11.70
2019-03-30T01:55:31.681Z,11.60
2019-03-30T01:58:00.128Z,11.50
2019-03-30T02:00:28.543Z,12.20
2019-03-30T02:02:56.990Z,13.20
2019-03-30T02:05:25.473Z,11.30
2019-03-30T02:07:53.927Z,11.40
2019-03-30T02:10:42.548Z,12.17
2019-03-30T02:13:11.167Z,10.90
2019-03-30T02:15:39.583Z,10.77
2019-03-30T02:18:08.296Z,10.60
2019-03-30T02:20:45.380Z,10.20
2019-03-30T02:23:20.779Z,9.70
2019-03-30T02:25:49.197Z,9.83
2019-03-30T02:28:17.639Z,10.20
2019-03-30T02:30:46.060Z,11.17
2019-03-30T02:33:14.626Z,10.63
2019-03-30T02:35:42.982Z,8.90
2019-03-30T02:38:11.434Z,9.63
2019-03-30T02:40:39.841Z,9.47
2019-03-30T02:43:08.354Z,9.07
2019-03-30T02:45:36.832Z,9.10
2019-03-30T02:48:05.343Z,8.67
2019-03-30T02:50:48.576Z,9.20
2019-03-30T02:53:04.020Z,8.23
2019-03-30T02:55:32.450Z,8.80
2019-03-30T02:58:00.851Z,9.63
2019-03-30T03:00:29.284Z,9.50
2019-03-30T03:02:57.707Z,8.80
2019-03-30T03:05:26.217Z,9.33
2019-03-30T03:07:54.639Z,9.70
2019-03-30T03:10:23.319Z,9.37
2019-03-30T03:12:51.739Z,9.70
2019-03-30T03:15:20.180Z,9.60
2019-03-30T03:17:48.598Z,9.00
2019-03-30T03:20:17.027Z,9.50
2019-03-30T03:22:45.441Z,9.60
2019-03-30T03:25:14.122Z,9.00
2019-03-30T03:27:42.530Z,9.13
2019-03-30T03:30:11.366Z,9.50
2019-03-30T03:32:39.760Z,10.90
2019-03-30T03:35:08.755Z,10.30
2019-03-30T03:37:45.531Z,9.80
2019-03-30T03:40:09.078Z,10.43
2019-03-30T03:42:37.634Z,9.20
2019-03-30T03:45:07.813Z,9.37
2019-03-30T03:47:36.292Z,8.40
2019-03-30T03:50:05.673Z,9.03
2019-03-30T03:52:34.419Z,9.97
2019-03-30T03:55:03.033Z,10.43
2019-03-30T03:57:34.367Z,10.33
2019-03-30T04:00:03.734Z,9.20
2019-03-30T04:02:35.332Z,10.00
2019-03-30T04:05:05.120Z,10.53
2019-03-30T04:07:35.009Z,9.93
2019-03-30T04:10:06.192Z,10.80
2019-03-30T04:12:36.626Z,9.80
2019-03-30T04:15:07.481Z,10.60
2019-03-30T04:17:36.038Z,11.23
2019-03-30T04:20:06.200Z,12.70
2019-03-30T04:22:34.710Z,11.20
2019-03-30T04:25:03.703Z,12.27
2019-03-30T04:27:32.165Z,11.97
2019-03-30T04:30:00.676Z,11.43
2019-03-30T04:32:29.200Z,12.50
2019-03-30T04:34:57.606Z,11.20
2019-03-30T04:37:26.075Z,13.00
2019-03-30T04:39:54.482Z,12.00
2019-03-30T04:42:22.931Z,11.77
2019-03-30T04:44:51.342Z,12.37
2019-03-30T04:47:19.801Z,11.60
2019-03-30T04:49:48.211Z,11.30
2019-03-30T04:52:16.660Z,12.60
2019-03-30T04:54:45.071Z,12.57
2019-03-30T04:57:13.512Z,12.60
2019-03-30T04:59:41.932Z,12.27
2019-03-30T05:02:10.378Z,12.50
2019-03-30T05:04:38.801Z,11.90
2019-03-30T05:07:07.251Z,12.53
2019-03-30T05:09:35.666Z,11.43
2019-03-30T05:12:04.186Z,11.23
2019-03-30T05:14:32.600Z,10.57
2019-03-30T05:17:01.061Z,9.93
2019-03-30T05:19:29.459Z,9.80
2019-03-30T05:22:11.630Z,10.00
2019-03-30T05:24:28.037Z,10.50
2019-03-30T05:26:56.484Z,12.13
2019-03-30T05:29:24.897Z,11.60
2019-03-30T05:31:53.346Z,12.63
2019-03-30T05:34:21.766Z,11.60
2019-03-30T05:36:50.186Z,12.23
2019-03-30T05:39:18.632Z,12.20
2019-03-30T05:41:47.047Z,12.27
2019-03-30T05:44:15.495Z,13.13
2019-03-30T05:46:43.917Z,12.93
2019-03-30T05:49:12.367Z,12.40
2019-03-30T05:51:40.852Z,12.00
2019-03-30T05:54:09.302Z,12.53
2019-03-30T05:56:37.715Z,11.97
2019-03-30T05:59:06.157Z,12.17
2019-03-30T06:01:34.577Z,12.57
2019-03-30T06:04:03.078Z,12.33
2019-03-30T06:06:31.512Z,12.17
2019-03-30T06:08:59.967Z,12.80
2019-03-30T06:11:28.386Z,13.20
2019-03-30T06:13:56.833Z,12.67
2019-03-30T06:16:25.257Z,12.70
2019-03-30T06:18:53.706Z,13.27
2019-03-30T06:21:22.128Z,12.57
2019-03-30T06:23:50.570Z,13.10
2019-03-30T06:26:18.990Z,13.93
2019-03-30T06:28:47.442Z,15.30
2019-03-30T06:31:15.865Z,14.50
2019-03-30T06:33:44.305Z,13.73
2019-03-30T06:36:12.722Z,14.67
2019-03-30T06:38:41.510Z,14.40
2019-03-30T06:41:09.939Z,14.70
2019-03-30T06:43:38.390Z,15.50
2019-03-30T06:46:06.802Z,15.00
2019-03-30T06:48:36.241Z,15.13
2019-03-30T06:51:04.854Z,15.67
2019-03-30T06:53:33.324Z,16.10
2019-03-30T06:56:01.819Z,16.00
2019-03-30T06:58:30.825Z,17.33
2019-03-30T07:00:59.421Z,18.67
2019-03-30T07:03:27.912Z,18.20
2019-03-30T07:05:57.023Z,18.20
2019-03-30T07:08:26.986Z,19.53
2019-03-30T07:10:55.808Z,17.87
2019-03-30T07:13:24.389Z,19.10
2019-03-30T07:15:53.216Z,19.80
2019-03-30T07:18:21.702Z,19.90
2019-03-30T07:20:50.225Z,19.70
2019-03-30T07:23:18.725Z,19.73
2019-03-30T07:25:47.175Z,20.00
2019-03-30T07:28:15.590Z,20.07
2019-03-30T07:30:44.035Z,19.23
2019-03-30T07:33:12.458Z,19.60
2019-03-30T07:35:40.977Z,19.97
2019-03-30T07:38:09.405Z,19.53
2019-03-30T07:40:37.848Z,20.23
2019-03-30T07:43:06.268Z,20.53
2019-03-30T07:45:34.784Z,19.17
2019-03-30T07:48:03.205Z,21.10
2019-03-30T07:50:31.718Z,20.73
2019-03-30T07:53:00.134Z,19.03
2019-03-30T07:55:28.554Z,18.80
2019-03-30T07:57:57.032Z,18.50
2019-03-30T08:00:30.592Z,18.53
2019-03-30T08:02:55.673Z,18.10
2019-03-30T08:05:24.107Z,20.03
2019-03-30T08:07:52.556Z,18.60
2019-03-30T08:10:21.039Z,18.90
2019-03-30T08:12:49.487Z,16.80
2019-03-30T08:15:17.979Z,16.90
2019-03-30T08:17:46.431Z,17.50
2019-03-30T08:20:15.186Z,17.50
2019-03-30T08:22:43.632Z,18.13
2019-03-30T08:25:12.123Z,15.87
2019-03-30T08:27:40.578Z,16.90
2019-03-30T08:30:09.230Z,15.97
2019-03-30T08:32:37.684Z,16.30
2019-03-30T08:35:07.344Z,18.03
2019-03-30T08:37:35.805Z,16.53
2019-03-30T08:40:04.770Z,16.43
2019-03-30T08:42:33.223Z,15.97
2019-03-30T08:45:01.645Z,14.10
2019-03-30T08:47:30.085Z,15.23
2019-03-30T08:49:58.512Z,15.50
2019-03-30T08:52:26.960Z,17.10
2019-03-30T08:54:55.389Z,16.67
2019-03-30T08:57:23.837Z,17.30
2019-03-30T08:59:52.264Z,16.57
2019-03-30T09:02:20.882Z,15.80
2019-03-30T09:04:49.305Z,16.27
2019-03-30T09:07:17.754Z,14.50
2019-03-30T09:09:46.184Z,13.63
2019-03-30T09:12:14.612Z,13.07
2019-03-30T09:14:43.066Z,14.00
2019-03-30T09:17:11.487Z,11.30
2019-03-30T09:19:39.937Z,12.13
2019-03-30T09:22:08.364Z,12.33
2019-03-30T09:24:36.808Z,11.77
2019-03-30T09:27:05.227Z,11.13
2019-03-30T09:29:33.688Z,11.80
2019-03-30T09:32:13.806Z,12.33
2019-03-30T09:34:32.351Z,11.27
2019-03-30T09:37:00.771Z,10.70
2019-03-30T09:39:29.214Z,10.83
2019-03-30T09:41:57.636Z,11.10
2019-03-30T09:44:26.089Z,11.10
2019-03-30T09:46:54.518Z,10.53
2019-03-30T09:49:22.955Z,10.43
2019-03-30T09:51:52.266Z,9.63
2019-03-30T09:54:23.881Z,10.17
2019-03-30T09:56:50.850Z,9.40
2019-03-30T09:59:19.298Z,9.37
2019-03-30T10:01:47.713Z,9.37
2019-03-30T10:04:16.162Z,9.70
2019-03-30T10:06:44.567Z,8.60
2019-03-30T10:09:13.005Z,9.57
2019-03-30T10:11:41.417Z,9.40
2019-03-30T10:14:09.856Z,9.90
2019-03-30T10:16:38.282Z,9.33
2019-03-30T10:19:06.720Z,8.80
2019-03-30T10:21:35.133Z,9.33
2019-03-30T10:24:03.553Z,8.17
2019-03-30T10:26:31.993Z,8.80
2019-03-30T10:29:00.396Z,8.70
2019-03-30T10:31:28.844Z,8.30
2019-03-30T10:33:57.251Z,8.03
2019-03-30T10:36:25.684Z,7.67
2019-03-30T10:38:54.111Z,7.37
2019-03-30T10:41:22.551Z,6.97
2019-03-30T10:43:50.969Z,7.37
2019-03-30T10:46:19.415Z,7.60
2019-03-30T10:48:47.834Z,7.70
2019-03-30T10:51:16.340Z,7.80
2019-03-30T10:53:44.760Z,7.03
2019-03-30T10:56:13.194Z,8.33
2019-03-30T10:58:41.606Z,8.70
2019-03-30T11:01:10.048Z,7.43
2019-03-30T11:03:38.458Z,8.43
2019-03-30T11:06:06.908Z,8.90
2019-03-30T11:08:35.328Z,7.70
2019-03-30T11:11:03.833Z,8.77
2019-03-30T11:13:32.258Z,8.50
2019-03-30T11:16:00.702Z,8.00
2019-03-30T11:18:29.116Z,7.70
2019-03-30T11:20:57.554Z,6.80
2019-03-30T11:23:25.963Z,6.20
2019-03-30T11:25:54.428Z,5.70
2019-03-30T11:28:22.816Z,5.10
2019-03-30T11:30:51.235Z,5.60
2019-03-30T11:33:19.740Z,6.30
2019-03-30T11:35:48.225Z,6.10
2019-03-30T11:38:16.672Z,5.80
2019-03-30T11:40:45.086Z,5.90
2019-03-30T11:43:13.529Z,5.33
2019-03-30T11:45:42.020Z,6.47
2019-03-30T11:48:10.462Z,6.27
2019-03-30T11:50:38.870Z,5.17
2019-03-30T11:53:07.383Z,5.93
2019-03-30T11:55:35.793Z,5.57
2019-03-30T11:58:04.237Z,6.00
2019-03-30T12:00:32.723Z,6.37
2019-03-30T12:03:01.176Z,5.80
2019-03-30T12:05:29.589Z,5.70
2019-03-30T12:07:58.096Z,5.63
2019-03-30T12:10:26.517Z,6.20
2019-03-30T12:12:54.957Z,6.33
2019-03-30T12:15:23.377Z,6.47
2019-03-30T12:17:51.862Z,6.80
2019-03-30T12:20:20.307Z,6.43
2019-03-30T12:22:48.724Z,6.20
2019-03-30T12:25:17.147Z,7.20
2019-03-30T12:27:45.593Z,7.40
2019-03-30T12:30:14.073Z,6.80
2019-03-30T12:32:42.516Z,6.50
2019-03-30T12:35:11.009Z,7.00
2019-03-30T12:37:39.459Z,6.70
2019-03-30T12:40:08.016Z,7.60
2019-03-30T12:42:36.520Z,7.30
2019-03-30T12:45:06.578Z,7.90
2019-03-30T12:47:34.995Z,8.27
2019-03-30T12:50:04.374Z,7.00
2019-03-30T12:52:32.790Z,7.17
2019-03-30T12:55:01.240Z,8.23
2019-03-30T12:57:29.653Z,8.07
2019-03-30T12:59:59.331Z,7.03
2019-03-30T13:02:27.953Z,7.23
2019-03-30T13:04:56.399Z,7.40
2019-03-30T13:07:24.819Z,8.37
2019-03-30T13:09:53.257Z,7.30
2019-03-30T13:12:21.668Z,6.20
2019-03-30T13:14:50.115Z,6.90
2019-03-30T13:17:18.526Z,5.93
2019-03-30T13:19:46.961Z,6.10
2019-03-30T13:22:15.388Z,6.67
2019-03-30T13:24:43.816Z,5.90
2019-03-30T13:27:13.124Z,6.83
2019-03-30T13:29:41.753Z,6.53
2019-03-30T13:32:10.165Z,6.50
2019-03-30T13:34:38.623Z,6.33
2019-03-30T13:37:17.783Z,6.03
2019-03-30T13:39:46.486Z,5.43
2019-03-30T13:42:14.896Z,6.63
2019-03-30T13:44:43.431Z,7.00
2019-03-30T13:47:11.841Z,6.40
2019-03-30T13:49:40.274Z,6.07
2019-03-30T13:52:08.687Z,5.60
2019-03-30T13:54:38.743Z,5.60
2019-03-30T13:57:07.425Z,6.50
2019-03-30T13:59:35.895Z,6.90
2019-03-30T14:02:04.309Z,6.57
2019-03-30T14:04:32.722Z,5.37
2019-03-30T14:07:01.173Z,6.90
2019-03-30T14:09:29.582Z,5.90
2019-03-30T14:11:58.025Z,6.40
2019-03-30T14:14:26.451Z,6.60
2019-03-30T14:16:54.902Z,6.70
2019-03-30T14:19:23.315Z,7.00
2019-03-30T14:21:51.761Z,6.60
2019-03-30T14:24:20.166Z,6.47
2019-03-30T14:26:48.610Z,5.50
2019-03-30T14:29:17.026Z,6.23
2019-03-30T14:31:45.494Z,6.40
2019-03-30T14:34:13.957Z,5.63
2019-03-30T14:36:42.406Z,5.60
2019-03-30T14:39:10.833Z,4.97
2019-03-30T14:41:39.267Z,5.90
2019-03-30T14:44:07.693Z,6.00
2019-03-30T14:46:36.140Z,5.70
2019-03-30T14:49:04.619Z,5.67
2019-03-30T14:51:33.074Z,6.33
2019-03-30T14:54:01.495Z,6.30
2019-03-30T14:56:29.940Z,6.07
2019-03-30T14:59:09.378Z,6.70
2019-03-30T15:01:28.519Z,7.13
2019-03-30T15:03:56.943Z,6.40
2019-03-30T15:06:25.388Z,7.40
2019-03-30T15:08:53.796Z,7.40
2019-03-30T15:11:22.242Z,7.03
2019-03-30T15:13:50.660Z,7.30
2019-03-30T15:16:19.183Z,7.00
2019-03-30T15:18:47.598Z,7.10
2019-03-30T15:21:16.126Z,6.73
2019-03-30T15:23:44.535Z,6.90
2019-03-30T15:26:12.981Z,6.67
2019-03-30T15:28:42.887Z,7.30
2019-03-30T15:31:11.617Z,7.73
2019-03-30T15:33:40.029Z,7.20
2019-03-30T15:36:08.510Z,6.70
2019-03-30T15:38:36.931Z,7.10
2019-03-30T15:41:05.358Z,7.77
2019-03-30T15:43:38.639Z,7.80
2019-03-30T15:46:04.012Z,7.50
2019-03-30T15:48:32.524Z,7.53
2019-03-30T15:51:01.012Z,7.43
2019-03-30T15:53:29.477Z,7.77
2019-03-30T15:55:57.979Z,6.87
2019-03-30T15:58:26.422Z,7.67
2019-03-30T16:00:55.088Z,7.73
2019-03-30T16:03:23.593Z,7.47
2019-03-30T16:05:52.097Z,8.10
2019-03-30T16:08:20.537Z,6.87
2019-03-30T16:10:52.111Z,7.20
2019-03-30T16:13:19.283Z,8.77
2019-03-30T16:15:47.689Z,8.77
2019-03-30T16:18:16.134Z,8.77
2019-03-30T16:20:44.559Z,8.07
2019-03-30T16:23:12.997Z,8.07
2019-03-30T16:25:41.401Z,7.73
2019-03-30T16:28:09.841Z,9.03
2019-03-30T16:30:38.258Z,9.87
2019-03-30T16:33:06.765Z,8.93
2019-03-30T16:35:35.252Z,8.77
2019-03-30T16:38:03.696Z,8.70
2019-03-30T16:40:32.111Z,7.93
2019-03-30T16:43:00.556Z,9.03
2019-03-30T16:45:28.980Z,10.30
2019-03-30T16:47:57.413Z,10.13
2019-03-30T16:50:25.836Z,10.23
2019-03-30T16:52:54.254Z,9.77
2019-03-30T16:55:22.690Z,9.50
2019-03-30T16:57:51.112Z,10.63
2019-03-30T17:00:19.629Z,9.90
2019-03-30T17:02:48.042Z,10.40
2019-03-30T17:05:16.560Z,10.93
2019-03-30T17:07:44.976Z,10.43
2019-03-30T17:10:13.599Z,11.90
2019-03-30T17:12:42.014Z,12.40
2019-03-30T17:15:10.838Z,11.90
2019-03-30T17:17:39.315Z,12.23
2019-03-30T17:20:08.641Z,12.60
2019-03-30T17:22:37.104Z,11.73
2019-03-30T17:25:07.115Z,11.87
2019-03-30T17:27:36.271Z,11.90
2019-03-30T17:30:07.728Z,12.00
2019-03-30T17:32:36.144Z,12.03
2019-03-30T17:35:06.222Z,12.77
2019-03-30T17:37:34.640Z,13.90
2019-03-30T17:40:03.698Z,14.70
2019-03-30T17:42:32.119Z,13.97
2019-03-30T17:45:00.569Z,13.70
2019-03-30T17:47:28.981Z,16.33
2019-03-30T17:49:57.428Z,16.00
2019-03-30T17:52:25.844Z,14.73
2019-03-30T17:54:54.368Z,14.00
2019-03-30T17:57:22.791Z,14.53
2019-03-30T17:59:51.236Z,16.60
2019-03-30T18:02:22.954Z,17.00
2019-03-30T18:04:49.902Z,17.27
2019-03-30T18:07:18.397Z,19.60
2019-03-30T18:09:46.845Z,21.13
2019-03-30T18:12:15.265Z,20.93
2019-03-30T18:14:43.709Z,21.73
2019-03-30T18:17:12.133Z,21.07
2019-03-30T18:19:40.583Z,19.63
2019-03-30T18:22:09.008Z,18.60
2019-03-30T18:24:37.427Z,19.60
2019-03-30T18:27:05.877Z,19.60
2019-03-30T18:29:34.295Z,20.40
2019-03-30T18:32:03.114Z,19.40
2019-03-30T18:34:31.705Z,19.80
2019-03-30T18:37:00.221Z,21.37
2019-03-30T18:39:29.582Z,20.63
2019-03-30T18:41:58.035Z,24.67
2019-03-30T18:44:26.826Z,20.17
2019-03-30T18:46:55.288Z,21.37
2019-03-30T18:49:23.772Z,20.23
2019-03-30T18:51:52.220Z,19.80
2019-03-30T18:54:20.804Z,17.60
2019-03-30T18:56:49.254Z,17.23
2019-03-30T18:59:17.673Z,17.77
2019-03-30T19:01:46.123Z,17.73
2019-03-30T19:04:14.616Z,16.50
2019-03-30T19:06:43.073Z,17.60
2019-03-30T19:09:11.487Z,16.07
2019-03-30T19:11:39.938Z,14.93
2019-03-30T19:14:08.506Z,13.90
2019-03-30T19:16:37.025Z,21.43
2019-03-30T19:19:05.447Z,18.67
2019-03-30T19:21:33.898Z,18.67
2019-03-30T19:24:02.313Z,25.80
2019-03-30T19:26:30.737Z,16.90
2019-03-30T19:28:59.190Z,17.30
2019-03-30T19:31:27.676Z,18.23
2019-03-30T19:33:56.135Z,19.07
2019-03-30T19:36:24.548Z,26.27
2019-03-30T19:38:52.990Z,28.73
2019-03-30T19:41:21.414Z,28.07
2019-03-30T19:43:49.932Z,29.07
2019-03-30T19:46:18.343Z,24.37
2019-03-30T19:48:46.794Z,27.17
2019-03-30T19:51:15.210Z,25.10
2019-03-30T19:53:43.653Z,32.43
2019-03-30T19:56:12.075Z,31.57
2019-03-30T19:58:40.524Z,32.70
2019-03-30T20:01:09.010Z,26.93
2019-03-30T20:03:37.459Z,22.40
2019-03-30T20:06:05.875Z,22.13
2019-03-30T20:08:34.393Z,19.60
2019-03-30T20:11:03.058Z,20.73
2019-03-30T20:13:31.513Z,22.67
2019-03-30T20:15:59.932Z,27.30
2019-03-30T20:18:28.376Z,24.10
2019-03-30T20:20:56.864Z,22.40
2019-03-30T20:23:25.311Z,24.50
2019-03-30T20:25:53.731Z,24.60
2019-03-30T20:28:22.199Z,25.27
2019-03-30T20:30:51.055Z,25.57
2019-03-30T20:33:19.505Z,25.20
2019-03-30T20:35:47.923Z,24.53
2019-03-30T20:38:16.429Z,23.87
2019-03-30T20:40:44.834Z,24.80
2019-03-30T20:43:13.259Z,26.20
2019-03-30T20:45:41.705Z,28.43
2019-03-30T20:48:10.127Z,25.87
2019-03-30T20:50:38.572Z,27.80
2019-03-30T20:53:07.077Z,24.13
2019-03-30T20:55:35.687Z,29.43
2019-03-30T20:58:04.257Z,25.27
2019-03-30T21:00:32.715Z,26.10
2019-03-30T21:03:01.136Z,25.83
2019-03-30T21:05:29.595Z,22.63
2019-03-30T21:07:58.020Z,26.13
2019-03-30T21:10:26.477Z,16.20
2019-03-30T21:12:54.904Z,23.90
2019-03-30T21:15:23.356Z,24.07
2019-03-30T21:17:51.781Z,24.73
2019-03-30T21:20:20.225Z,28.43
2019-03-30T21:22:48.654Z,25.23
2019-03-30T21:25:17.109Z,28.67
2019-03-30T21:27:45.549Z,29.37
2019-03-30T21:30:14.863Z,30.77
2019-03-30T21:32:43.285Z,31.73
2019-03-30T21:35:11.777Z,32.57
2019-03-30T21:37:40.230Z,28.23
2019-03-30T21:40:08.717Z,35.17
2019-03-30T21:42:37.166Z,34.63
2019-03-30T21:45:07.331Z,32.53
2019-03-30T21:47:35.783Z,37.90
2019-03-30T21:50:06.356Z,43.57
2019-03-30T21:52:34.810Z,35.70
2019-03-30T21:55:03.407Z,30.40
2019-03-30T21:57:31.860Z,34.80
2019-03-30T22:00:10.032Z,32.00
2019-03-30T22:02:30.532Z,30.00
2019-03-30T22:04:58.966Z,31.87
2019-03-30T22:07:27.418Z,28.47
2019-03-30T22:09:56.505Z,33.67
2019-03-30T22:12:24.957Z,30.97
2019-03-30T22:14:53.377Z,33.90
2019-03-30T22:17:21.832Z,36.23
2019-03-30T22:19:50.256Z,35.73
2019-03-30T22:22:18.708Z,36.57
2019-03-30T22:24:47.129Z,36.30
2019-03-30T22:27:15.584Z,34.07
2019-03-30T22:29:44.007Z,32.73
2019-03-30T22:32:12.455Z,33.87
2019-03-30T22:34:40.880Z,33.60
2019-03-30T22:37:09.328Z,34.00
2019-03-30T22:39:37.749Z,34.23
2019-03-30T22:42:06.199Z,36.80
2019-03-30T22:44:34.619Z,34.73
2019-03-30T22:47:03.044Z,33.53
2019-03-30T22:49:31.497Z,32.13
2019-03-30T22:51:59.926Z,32.87
2019-03-30T22:54:28.366Z,31.00
2019-03-30T22:56:56.783Z,32.67
2019-03-30T22:59:25.234Z,33.03
2019-03-30T23:01:53.727Z,34.27
2019-03-30T23:04:22.180Z,33.83
2019-03-30T23:06:50.604Z,32.50
2019-03-30T23:09:19.056Z,33.30
2019-03-30T23:11:47.475Z,31.63
2019-03-30T23:14:15.920Z,33.77
2019-03-30T23:16:44.336Z,31.60
2019-03-30T23:19:12.788Z,33.40
2019-03-30T23:21:41.210Z,35.53
2019-03-30T23:24:09.666Z,28.70
2019-03-30T23:26:38.088Z,36.40
2019-03-30T23:29:06.580Z,26.37
2019-03-30T23:31:35.047Z,26.97
2019-03-30T23:34:03.506Z,29.40
2019-03-30T23:36:31.921Z,24.93
2019-03-30T23:39:00.362Z,30.83
2019-03-30T23:41:28.788Z,29.37
2019-03-30T23:43:57.269Z,28.20
2019-03-30T23:46:25.684Z,28.70
2019-03-30T23:48:54.102Z,32.27
2019-03-30T23:51:22.624Z,29.83
2019-03-30T23:53:51.055Z,27.90
2019-03-30T23:56:26.053Z,29.57
2019-03-30T23:58:54.538Z,23.50
